createdAt,value
2019-02-17T00:04:40.720Z,8.96
2019-02-17T00:09:46.052Z,8.93
2019-02-17T00:14:51.442Z,8.89
2019-02-17T00:19:56.770Z,8.84
2019-02-17T00:25:02.067Z,8.78
2019-02-17T00:30:07.463Z,8.76
2019-02-17T00:35:12.942Z,8.74
2019-02-17T00:40:18.285Z,8.72
2019-02-17T00:45:23.577Z,8.70
2019-02-17T00:50:28.990Z,8.69
2019-02-17T00:55:34.290Z,8.68
2019-02-17T01:00:39.664Z,8.67
2019-02-17T01:05:44.989Z,8.67
2019-02-17T01:10:50.321Z,8.64
2019-02-17T01:15:55.736Z,8.61
2019-02-17T01:21:01.160Z,8.57
2019-02-17T01:26:06.497Z,8.53
2019-02-17T01:31:11.776Z,8.49
2019-02-17T01:36:17.160Z,8.45
2019-02-17T01:41:22.503Z,8.40
2019-02-17T01:46:27.842Z,8.33
2019-02-17T01:51:33.233Z,8.28
2019-02-17T01:56:38.784Z,8.20
2019-02-17T02:01:44.185Z,8.16
2019-02-17T02:06:49.589Z,8.10
2019-02-17T02:11:55.007Z,8.05
2019-02-17T02:17:00.423Z,7.99
2019-02-17T02:22:05.899Z,7.94
2019-02-17T02:27:11.198Z,7.91
2019-02-17T02:32:16.589Z,7.88
2019-02-17T02:37:22.087Z,7.86
2019-02-17T02:42:27.406Z,7.82
2019-02-17T02:47:32.684Z,7.81
2019-02-17T02:52:38.000Z,7.79
2019-02-17T02:57:43.393Z,7.81
2019-02-17T03:02:48.665Z,7.82
2019-02-17T03:07:53.964Z,7.81
2019-02-17T03:12:59.342Z,7.78
2019-02-17T03:18:04.666Z,7.75
2019-02-17T03:23:09.983Z,7.72
2019-02-17T03:28:15.426Z,7.69
2019-02-17T03:33:20.910Z,7.65
2019-02-17T03:38:26.492Z,7.63
2019-02-17T03:43:31.772Z,7.60
2019-02-17T03:48:37.157Z,7.56
2019-02-17T03:53:42.496Z,7.52
2019-02-17T03:58:47.892Z,7.50
2019-02-17T04:03:53.179Z,7.49
2019-02-17T04:08:58.521Z,7.47
2019-02-17T04:14:03.983Z,7.43
2019-02-17T04:19:09.367Z,7.42
2019-02-17T04:24:14.697Z,7.39
2019-02-17T04:29:20.124Z,7.34
2019-02-17T04:34:25.605Z,7.30
2019-02-17T04:39:30.930Z,7.26
2019-02-17T04:44:36.333Z,7.24
2019-02-17T04:49:41.680Z,7.22
2019-02-17T04:54:47.000Z,7.18
2019-02-17T04:59:52.387Z,7.17
2019-02-17T05:04:57.718Z,7.15
2019-02-17T05:10:03.153Z,7.13
2019-02-17T05:15:08.941Z,7.12
2019-02-17T05:20:14.625Z,7.11
2019-02-17T05:25:20.099Z,7.08
2019-02-17T05:30:25.430Z,7.07
2019-02-17T05:35:30.891Z,7.04
2019-02-17T05:40:36.686Z,7.02
2019-02-17T05:45:42.121Z,7.01
2019-02-17T05:50:47.410Z,6.97
2019-02-17T05:55:52.746Z,6.95
2019-02-17T06:01:03.766Z,6.92
2019-02-17T06:06:05.136Z,6.89
2019-02-17T06:11:10.461Z,6.87
2019-02-17T06:16:15.906Z,6.85
2019-02-17T06:21:21.335Z,6.84
2019-02-17T06:26:26.677Z,6.86
2019-02-17T06:31:31.967Z,6.88
2019-02-17T06:36:37.332Z,6.91
2019-02-17T06:41:42.699Z,6.93
2019-02-17T06:46:52.043Z,6.96
2019-02-17T06:51:57.489Z,6.98
2019-02-17T06:57:21.689Z,7.07
2019-02-17T07:02:27.231Z,7.17
2019-02-17T07:07:32.695Z,7.31
2019-02-17T07:12:38.043Z,7.43
2019-02-17T07:17:43.505Z,7.57
2019-02-17T07:22:48.845Z,7.77
2019-02-17T07:27:54.304Z,7.93
2019-02-17T07:32:59.602Z,8.11
2019-02-17T07:38:05.120Z,8.32
2019-02-17T07:43:10.623Z,8.60
2019-02-17T07:48:16.128Z,9.17
2019-02-17T07:53:21.550Z,10.81
2019-02-17T07:58:28.388Z,12.62
2019-02-17T08:03:33.818Z,14.15
2019-02-17T08:08:39.806Z,15.28
2019-02-17T08:13:47.973Z,15.69
2019-02-17T08:18:53.389Z,16.34
2019-02-17T08:23:58.843Z,16.91
2019-02-17T08:29:04.199Z,17.23
2019-02-17T08:34:09.671Z,17.69
2019-02-17T08:39:15.263Z,17.92
2019-02-17T08:44:20.629Z,18.49
2019-02-17T08:49:26.100Z,19.09
2019-02-17T08:54:31.633Z,19.46
2019-02-17T08:59:36.980Z,19.94
2019-02-17T09:04:42.337Z,20.57
2019-02-17T09:09:47.759Z,21.73
2019-02-17T09:14:53.165Z,22.80
2019-02-17T09:19:58.488Z,23.35
2019-02-17T09:25:03.790Z,24.00
2019-02-17T09:30:13.858Z,25.17
2019-02-17T09:35:19.533Z,25.76
2019-02-17T09:40:24.985Z,26.33
2019-02-17T09:45:30.358Z,26.51
2019-02-17T09:50:35.817Z,26.62
2019-02-17T09:55:41.108Z,25.79
2019-02-17T10:00:46.452Z,25.25
2019-02-17T10:05:52.154Z,23.67
2019-02-17T10:10:57.502Z,21.42
2019-02-17T10:16:02.833Z,19.46
2019-02-17T10:21:08.228Z,17.87
2019-02-17T10:26:13.677Z,16.74
2019-02-17T10:31:19.161Z,15.99
2019-02-17T10:36:24.588Z,15.36
2019-02-17T10:41:30.051Z,14.91
2019-02-17T10:46:35.410Z,14.74
2019-02-17T10:51:40.736Z,14.67
2019-02-17T10:56:46.114Z,14.62
2019-02-17T11:01:51.565Z,14.63
2019-02-17T11:06:56.878Z,14.65
2019-02-17T11:12:02.179Z,14.69
2019-02-17T11:17:07.514Z,14.80
2019-02-17T11:22:22.729Z,14.90
2019-02-17T11:27:20.110Z,15.04
2019-02-17T11:32:25.525Z,15.19
2019-02-17T11:37:30.979Z,15.36
2019-02-17T11:42:36.463Z,15.47
2019-02-17T11:47:41.814Z,15.55
2019-02-17T11:52:47.199Z,15.63
2019-02-17T11:57:54.252Z,15.73
2019-02-17T12:03:07.571Z,15.86
2019-02-17T12:08:06.654Z,16.04
2019-02-17T12:13:11.988Z,16.18
2019-02-17T12:18:17.423Z,16.31
2019-02-17T12:23:27.865Z,16.43
2019-02-17T12:28:36.929Z,16.54
2019-02-17T12:33:42.330Z,16.71
2019-02-17T12:38:47.892Z,16.81
2019-02-17T12:43:53.251Z,16.88
2019-02-17T12:48:58.673Z,16.98
2019-02-17T12:54:04.005Z,17.08
2019-02-17T12:59:09.454Z,17.13
2019-02-17T13:04:14.862Z,17.23
2019-02-17T13:09:20.145Z,17.35
2019-02-17T13:14:25.454Z,17.45
2019-02-17T13:19:30.828Z,17.51
2019-02-17T13:24:36.177Z,17.56
2019-02-17T13:29:41.590Z,17.57
2019-02-17T13:34:47.340Z,17.58
2019-02-17T13:39:52.684Z,17.58
2019-02-17T13:44:58.071Z,17.58
2019-02-17T13:50:03.393Z,17.63
2019-02-17T13:55:09.082Z,17.65
2019-02-17T14:00:15.744Z,17.66
2019-02-17T14:05:21.046Z,17.68
2019-02-17T14:10:26.451Z,17.68
2019-02-17T14:15:32.067Z,17.73
2019-02-17T14:20:37.468Z,17.75
2019-02-17T14:25:43.104Z,17.80
2019-02-17T14:30:48.428Z,17.82
2019-02-17T14:35:53.797Z,17.85
2019-02-17T14:40:59.251Z,17.90
2019-02-17T14:46:04.594Z,17.93
2019-02-17T14:51:10.111Z,17.95
2019-02-17T14:56:15.465Z,17.94
2019-02-17T15:01:20.814Z,17.92
2019-02-17T15:06:26.219Z,17.93
2019-02-17T15:11:31.667Z,17.92
2019-02-17T15:16:37.202Z,17.91
2019-02-17T15:21:42.558Z,17.87
2019-02-17T15:26:48.017Z,17.82
2019-02-17T15:31:53.476Z,17.72
2019-02-17T15:36:58.927Z,17.62
2019-02-17T15:42:04.222Z,17.53
2019-02-17T15:47:09.551Z,17.44
2019-02-17T15:52:14.899Z,17.35
2019-02-17T15:57:23.579Z,17.24
2019-02-17T16:02:28.883Z,17.15
2019-02-17T16:07:34.193Z,17.07
2019-02-17T16:12:39.526Z,16.95
2019-02-17T16:17:44.829Z,16.84
2019-02-17T16:22:50.136Z,16.73
2019-02-17T16:27:55.476Z,16.60
2019-02-17T16:33:00.897Z,16.47
2019-02-17T16:38:06.247Z,16.34
2019-02-17T16:43:11.825Z,16.16
2019-02-17T16:48:17.092Z,15.99
2019-02-17T16:53:22.466Z,15.86
2019-02-17T16:58:27.783Z,15.73
2019-02-17T17:03:33.101Z,15.61
2019-02-17T17:08:38.532Z,15.48
2019-02-17T17:13:43.832Z,15.34
2019-02-17T17:18:49.172Z,15.17
2019-02-17T17:23:54.644Z,15.02
2019-02-17T17:28:59.976Z,14.88
2019-02-17T17:34:05.366Z,14.72
2019-02-17T17:39:10.708Z,14.58
2019-02-17T17:44:16.026Z,14.41
2019-02-17T17:49:21.503Z,14.23
2019-02-17T17:54:27.058Z,14.12
2019-02-17T17:59:32.521Z,14.02
2019-02-17T18:04:37.856Z,13.95
2019-02-17T18:09:43.244Z,13.87
2019-02-17T18:14:48.602Z,13.81
2019-02-17T18:19:53.927Z,13.71
2019-02-17T18:24:59.742Z,13.64
2019-02-17T18:30:06.418Z,13.57
2019-02-17T18:35:19.695Z,13.50
2019-02-17T18:40:21.111Z,13.43
2019-02-17T18:45:27.335Z,13.34
2019-02-17T18:50:33.375Z,13.25
2019-02-17T18:55:39.746Z,13.17
2019-02-17T19:00:45.057Z,13.16
2019-02-17T19:05:50.435Z,13.16
2019-02-17T19:10:55.825Z,13.19
2019-02-17T19:16:01.217Z,13.20
2019-02-17T19:21:06.695Z,13.18
2019-02-17T19:26:12.039Z,13.16
2019-02-17T19:31:17.454Z,13.10
2019-02-17T19:36:25.913Z,13.02
2019-02-17T19:41:33.937Z,12.94
2019-02-17T19:46:41.609Z,12.83
2019-02-17T19:51:49.662Z,12.73
2019-02-17T19:56:59.901Z,12.65
2019-02-17T20:02:09.083Z,12.60
2019-02-17T20:07:17.379Z,12.55
2019-02-17T20:12:23.527Z,12.51
2019-02-17T20:17:30.320Z,12.44
2019-02-17T20:22:35.780Z,12.35
2019-02-17T20:27:41.090Z,12.27
2019-02-17T20:32:46.490Z,12.24
2019-02-17T20:37:51.817Z,12.17
2019-02-17T20:42:57.146Z,12.10
2019-02-17T20:48:02.535Z,12.02
2019-02-17T20:53:08.013Z,11.97
2019-02-17T20:58:13.446Z,11.97
2019-02-17T21:03:18.750Z,11.92
2019-02-17T21:08:24.315Z,11.87
2019-02-17T21:13:29.787Z,11.79
2019-02-17T21:18:35.237Z,11.75
2019-02-17T21:23:40.517Z,11.71
2019-02-17T21:28:46.056Z,11.66
2019-02-17T21:33:51.607Z,11.58
2019-02-17T21:38:58.748Z,11.54
2019-02-17T21:44:04.216Z,11.49
2019-02-17T21:49:09.656Z,11.43
2019-02-17T21:54:15.094Z,11.33
2019-02-17T21:59:20.367Z,11.21
2019-02-17T22:04:25.712Z,11.13
2019-02-17T22:09:31.038Z,11.09
2019-02-17T22:14:36.368Z,11.05
2019-02-17T22:19:41.687Z,10.99
2019-02-17T22:24:47.027Z,10.91
2019-02-17T22:29:52.349Z,10.81
2019-02-17T22:34:57.827Z,10.69
2019-02-17T22:40:03.178Z,10.60
2019-02-17T22:45:09.042Z,10.51
2019-02-17T22:50:14.532Z,10.43
2019-02-17T22:55:20.038Z,10.35
2019-02-17T23:00:57.796Z,10.26
2019-02-17T23:06:03.367Z,10.15
2019-02-17T23:11:08.662Z,10.06
2019-02-17T23:16:14.020Z,9.98
2019-02-17T23:21:19.428Z,9.91
2019-02-17T23:26:24.965Z,9.85
2019-02-17T23:31:30.369Z,9.77
2019-02-17T23:36:35.766Z,9.71
2019-02-17T23:41:41.195Z,9.64
2019-02-17T23:46:46.587Z,9.55
2019-02-17T23:51:51.903Z,9.47
2019-02-17T23:56:57.510Z,9.44
